createdAt,value
2022-11-01T00:06:24.425Z,13.38
2022-11-01T00:16:22.817Z,14.48
2022-11-01T00:26:22.701Z,12.95
2022-11-01T00:36:19.937Z,12.10
2022-11-01T00:46:17.642Z,12.05
2022-11-01T00:56:14.918Z,11.13
2022-11-01T01:06:12.097Z,10.68
2022-11-01T01:26:09.701Z,7.73
2022-11-01T01:36:07.298Z,7.65
2022-11-01T01:46:04.658Z,8.00
2022-11-01T01:56:21.536Z,6.20
2022-11-01T02:06:20.850Z,7.13
2022-11-01T02:16:55.582Z,6.80
2022-11-01T02:26:52.718Z,6.38
2022-11-01T02:47:01.865Z,6.68
2022-11-01T02:57:05.438Z,7.03
2022-11-01T03:07:07.117Z,6.57
2022-11-01T03:17:20.518Z,9.25
2022-11-01T03:27:26.140Z,10.23
2022-11-01T03:37:24.817Z,11.00
2022-11-01T03:47:22.537Z,9.65
2022-11-01T03:57:19.859Z,9.80
2022-11-01T04:07:17.100Z,7.65
2022-11-01T04:27:29.700Z,8.85
2022-11-01T04:47:24.138Z,9.73
2022-11-01T05:07:21.712Z,10.25
2022-11-01T05:27:15.874Z,11.98
2022-11-01T05:47:14.647Z,10.82
2022-11-01T05:57:14.216Z,10.23
2022-11-01T06:17:08.930Z,9.98
2022-11-01T06:27:10.011Z,9.23
2022-11-01T06:37:09.585Z,9.98
2022-11-01T06:57:04.125Z,10.38
2022-11-01T07:07:01.284Z,8.57
2022-11-01T07:26:55.545Z,8.63
2022-11-01T07:46:50.055Z,7.38
2022-11-01T08:06:47.025Z,7.23
2022-11-01T08:16:56.035Z,6.68
2022-11-01T08:26:53.919Z,6.82
2022-11-01T08:36:51.135Z,6.63
2022-11-01T08:56:46.147Z,5.88
2022-11-01T09:06:43.435Z,5.63
2022-11-01T09:16:40.535Z,5.57
2022-11-01T09:36:35.098Z,5.57
2022-11-01T09:57:06.435Z,2.10
2022-11-01T10:07:44.836Z,1.77
2022-11-01T10:17:52.483Z,1.60
2022-11-01T10:27:58.896Z,1.13
2022-11-01T10:38:22.787Z,1.35
2022-11-01T10:48:40.254Z,0.82
2022-11-01T10:58:52.297Z,1.80
2022-11-01T11:08:55.664Z,2.03
2022-11-01T11:19:16.222Z,1.02
2022-11-01T11:29:45.336Z,0.93
2022-11-01T11:40:12.627Z,1.23
2022-11-01T11:50:22.144Z,0.90
2022-11-01T12:00:24.645Z,0.60
2022-11-01T12:10:39.878Z,0.70
2022-11-01T12:20:38.904Z,0.80
2022-11-01T12:30:38.074Z,1.00
2022-11-01T12:40:38.493Z,0.63
2022-11-01T12:50:56.923Z,0.90
2022-11-01T13:01:09.348Z,1.23
2022-11-01T13:11:35.186Z,0.75
2022-11-01T13:21:51.584Z,1.35
2022-11-01T13:32:06.903Z,0.90
2022-11-01T13:42:11.614Z,1.10
2022-11-01T14:02:26.487Z,1.13
2022-11-01T14:12:48.130Z,0.75
2022-11-01T14:22:47.887Z,0.88
2022-11-01T14:32:54.967Z,1.17
2022-11-01T14:42:53.789Z,1.13
2022-11-01T14:53:01.818Z,1.00
2022-11-01T15:03:01.280Z,1.00
2022-11-01T15:13:04.539Z,1.10
2022-11-01T15:23:14.631Z,1.45
2022-11-01T15:33:20.480Z,1.30
2022-11-01T15:43:23.909Z,1.33
2022-11-01T15:53:25.102Z,1.25
2022-11-01T16:03:29.479Z,1.67
2022-11-01T16:13:27.341Z,1.30
2022-11-01T16:23:28.651Z,1.52
2022-11-01T16:33:30.754Z,1.45
2022-11-01T16:43:30.939Z,1.48
2022-11-01T16:53:32.877Z,1.52
2022-11-01T17:03:31.389Z,1.65
2022-11-01T17:13:28.869Z,2.20
2022-11-01T17:23:28.419Z,1.50
2022-11-01T17:33:25.759Z,3.28
2022-11-01T17:43:23.339Z,2.47
2022-11-01T17:53:20.771Z,2.65
2022-11-01T18:03:18.699Z,2.08
2022-11-01T18:13:37.415Z,1.95
2022-11-01T18:23:36.193Z,2.65
2022-11-01T18:33:54.939Z,2.22
2022-11-01T18:43:54.367Z,2.58
2022-11-01T18:54:03.652Z,1.83
2022-11-01T19:04:25.234Z,2.00
2022-11-01T19:14:23.466Z,2.53
2022-11-01T19:24:36.422Z,2.78
2022-11-01T19:34:38.727Z,2.03
2022-11-01T19:44:36.686Z,2.92
2022-11-01T19:54:38.650Z,2.35
2022-11-01T20:04:37.039Z,2.50
2022-11-01T20:14:35.698Z,2.30
2022-11-01T20:24:33.035Z,1.70
2022-11-01T20:44:27.830Z,1.52
2022-11-01T20:54:25.179Z,2.35
2022-11-01T21:04:22.730Z,2.08
2022-11-01T21:14:21.004Z,1.98
2022-11-01T21:24:27.210Z,2.13
2022-11-01T21:34:30.274Z,2.20
2022-11-01T21:44:31.278Z,1.50
2022-11-01T21:54:30.733Z,2.85
2022-11-01T22:04:30.678Z,2.00
2022-11-01T22:14:28.373Z,1.15
2022-11-01T22:24:26.177Z,1.40
2022-11-01T22:34:23.758Z,2.20
2022-11-01T22:44:27.327Z,1.17
2022-11-01T22:54:42.240Z,1.52
2022-11-01T23:04:39.592Z,1.25
2022-11-01T23:14:40.249Z,1.35
2022-11-01T23:24:37.580Z,1.40
2022-11-01T23:34:35.148Z,2.60
2022-11-01T23:44:39.757Z,1.65
2022-11-01T23:54:43.282Z,1.80
